sensor_id;sensor_type;location;lat;lon;timestamp;temperature;humidity
15095;DHT22;7648;52.264;9.632;2023-02-16T00:01:34;4.20;99.90
15095;DHT22;7648;52.264;9.632;2023-02-16T00:05:37;4.10;99.90
15095;DHT22;7648;52.264;9.632;2023-02-16T00:09:39;4.10;99.90
15095;DHT22;7648;52.264;9.632;2023-02-16T00:13:41;4.00;99.90
15095;DHT22;7648;52.264;9.632;2023-02-16T00:17:45;4.00;99.90
15095;DHT22;7648;52.264;9.632;2023-02-16T00:21:50;4.00;99.90
15095;DHT22;7648;52.264;9.632;2023-02-16T00:25:52;4.00;99.90
15095;DHT22;7648;52.264;9.632;2023-02-16T00:29:54;4.00;99.90
15095;DHT22;7648;52.264;9.632;2023-02-16T00:33:56;4.00;99.90
15095;DHT22;7648;52.264;9.632;2023-02-16T00:38:00;4.00;99.90
15095;DHT22;7648;52.264;9.632;2023-02-16T00:42:03;3.90;99.90
15095;DHT22;7648;52.264;9.632;2023-02-16T00:46:08;3.90;99.90
15095;DHT22;7648;52.264;9.632;2023-02-16T00:50:14;3.80;99.90
15095;DHT22;7648;52.264;9.632;2023-02-16T00:54:20;3.80;99.90
15095;DHT22;7648;52.264;9.632;2023-02-16T00:58:25;3.80;99.90
15095;DHT22;7648;52.264;9.632;2023-02-16T01:02:28;3.70;99.90
15095;DHT22;7648;52.264;9.632;2023-02-16T01:06:30;3.70;99.90
15095;DHT22;7648;52.264;9.632;2023-02-16T01:10:51;3.70;99.90
15095;DHT22;7648;52.264;9.632;2023-02-16T01:15:12;3.70;99.90
15095;DHT22;7648;52.264;9.632;2023-02-16T01:19:14;3.70;99.90
15095;DHT22;7648;52.264;9.632;2023-02-16T01:23:16;3.80;99.90
15095;DHT22;7648;52.264;9.632;2023-02-16T01:27:19;3.80;99.90
15095;DHT22;7648;52.264;9.632;2023-02-16T01:31:21;3.80;99.90
15095;DHT22;7648;52.264;9.632;2023-02-16T01:35:28;3.80;99.90
15095;DHT22;7648;52.264;9.632;2023-02-16T01:39:31;3.90;99.90
15095;DHT22;7648;52.264;9.632;2023-02-16T01:43:41;4.00;99.90
15095;DHT22;7648;52.264;9.632;2023-02-16T01:47:48;4.00;99.90
15095;DHT22;7648;52.264;9.632;2023-02-16T01:51:55;4.00;99.90
15095;DHT22;7648;52.264;9.632;2023-02-16T01:56:01;4.00;99.90
15095;DHT22;7648;52.264;9.632;2023-02-16T02:00:15;4.10;99.90
15095;DHT22;7648;52.264;9.632;2023-02-16T02:04:30;4.20;99.90
15095;DHT22;7648;52.264;9.632;2023-02-16T02:08:57;4.20;99.90
15095;DHT22;7648;52.264;9.632;2023-02-16T02:13:06;4.20;99.90
15095;DHT22;7648;52.264;9.632;2023-02-16T02:17:16;4.20;99.90
15095;DHT22;7648;52.264;9.632;2023-02-16T02:21:31;4.20;99.90
15095;DHT22;7648;52.264;9.632;2023-02-16T02:30:54;4.10;99.90
15095;DHT22;7648;52.264;9.632;2023-02-16T02:35:03;4.00;99.90
15095;DHT22;7648;52.264;9.632;2023-02-16T02:39:19;4.00;99.90
15095;DHT22;7648;52.264;9.632;2023-02-16T02:43:30;3.90;99.90
15095;DHT22;7648;52.264;9.632;2023-02-16T02:47:41;3.80;99.90
15095;DHT22;7648;52.264;9.632;2023-02-16T02:51:43;3.70;99.90
15095;DHT22;7648;52.264;9.632;2023-02-16T02:55:48;3.70;99.90
15095;DHT22;7648;52.264;9.632;2023-02-16T03:00:23;3.70;99.90
15095;DHT22;7648;52.264;9.632;2023-02-16T03:04:46;3.60;99.90
15095;DHT22;7648;52.264;9.632;2023-02-16T03:08:53;3.60;99.90
15095;DHT22;7648;52.264;9.632;2023-02-16T03:12:57;3.60;99.90
15095;DHT22;7648;52.264;9.632;2023-02-16T03:17:00;3.60;99.90
15095;DHT22;7648;52.264;9.632;2023-02-16T03:21:21;3.60;99.90
15095;DHT22;7648;52.264;9.632;2023-02-16T03:25:41;3.50;99.90
15095;DHT22;7648;52.264;9.632;2023-02-16T03:30:02;3.50;99.90
15095;DHT22;7648;52.264;9.632;2023-02-16T03:34:06;3.50;99.90
15095;DHT22;7648;52.264;9.632;2023-02-16T03:38:09;3.50;99.90
15095;DHT22;7648;52.264;9.632;2023-02-16T03:42:11;3.50;99.90
15095;DHT22;7648;52.264;9.632;2023-02-16T03:46:13;3.60;99.90
15095;DHT22;7648;52.264;9.632;2023-02-16T03:50:15;3.60;99.90
15095;DHT22;7648;52.264;9.632;2023-02-16T03:54:19;3.60;99.90
15095;DHT22;7648;52.264;9.632;2023-02-16T03:58:22;3.70;99.90
15095;DHT22;7648;52.264;9.632;2023-02-16T04:02:26;3.70;99.90
15095;DHT22;7648;52.264;9.632;2023-02-16T04:06:29;3.90;99.90
15095;DHT22;7648;52.264;9.632;2023-02-16T04:10:32;3.90;99.90
15095;DHT22;7648;52.264;9.632;2023-02-16T04:14:34;3.90;99.90
15095;DHT22;7648;52.264;9.632;2023-02-16T04:18:36;4.00;99.90
15095;DHT22;7648;52.264;9.632;2023-02-16T04:22:38;4.10;99.90
15095;DHT22;7648;52.264;9.632;2023-02-16T04:26:41;4.10;99.90
15095;DHT22;7648;52.264;9.632;2023-02-16T04:30:45;4.10;99.90
15095;DHT22;7648;52.264;9.632;2023-02-16T04:34:46;4.00;99.90
15095;DHT22;7648;52.264;9.632;2023-02-16T04:38:48;3.90;99.90
15095;DHT22;7648;52.264;9.632;2023-02-16T04:42:51;3.80;99.90
15095;DHT22;7648;52.264;9.632;2023-02-16T04:46:53;3.80;99.90
15095;DHT22;7648;52.264;9.632;2023-02-16T04:50:55;3.80;99.90
15095;DHT22;7648;52.264;9.632;2023-02-16T04:54:57;3.70;99.90
15095;DHT22;7648;52.264;9.632;2023-02-16T04:59:00;3.70;99.90
15095;DHT22;7648;52.264;9.632;2023-02-16T05:03:02;3.70;99.90
15095;DHT22;7648;52.264;9.632;2023-02-16T05:07:04;3.80;99.90
15095;DHT22;7648;52.264;9.632;2023-02-16T05:11:05;3.80;99.90
15095;DHT22;7648;52.264;9.632;2023-02-16T05:15:26;3.80;99.90
15095;DHT22;7648;52.264;9.632;2023-02-16T05:19:28;3.80;99.90
15095;DHT22;7648;52.264;9.632;2023-02-16T05:23:30;3.70;99.90
15095;DHT22;7648;52.264;9.632;2023-02-16T05:27:31;3.70;99.90
15095;DHT22;7648;52.264;9.632;2023-02-16T05:31:35;3.80;99.90
15095;DHT22;7648;52.264;9.632;2023-02-16T05:35:36;3.80;99.90
15095;DHT22;7648;52.264;9.632;2023-02-16T05:39:38;3.90;99.90
15095;DHT22;7648;52.264;9.632;2023-02-16T05:43:40;3.90;99.90
15095;DHT22;7648;52.264;9.632;2023-02-16T05:47:43;3.90;99.90
15095;DHT22;7648;52.264;9.632;2023-02-16T05:51:45;3.80;99.90
15095;DHT22;7648;52.264;9.632;2023-02-16T05:55:47;3.80;99.90
15095;DHT22;7648;52.264;9.632;2023-02-16T05:59:49;3.70;99.90
15095;DHT22;7648;52.264;9.632;2023-02-16T06:03:52;3.60;99.90
15095;DHT22;7648;52.264;9.632;2023-02-16T06:07:54;3.60;99.90
15095;DHT22;7648;52.264;9.632;2023-02-16T06:11:56;3.50;99.90
15095;DHT22;7648;52.264;9.632;2023-02-16T06:15:57;3.50;99.90
15095;DHT22;7648;52.264;9.632;2023-02-16T06:20:01;3.50;99.90
15095;DHT22;7648;52.264;9.632;2023-02-16T06:24:03;3.40;99.90
15095;DHT22;7648;52.264;9.632;2023-02-16T06:28:05;3.50;99.90
15095;DHT22;7648;52.264;9.632;2023-02-16T06:32:07;3.40;99.90
15095;DHT22;7648;52.264;9.632;2023-02-16T06:36:11;3.40;99.90
15095;DHT22;7648;52.264;9.632;2023-02-16T06:40:14;3.40;99.90
15095;DHT22;7648;52.264;9.632;2023-02-16T06:44:17;3.40;99.90
15095;DHT22;7648;52.264;9.632;2023-02-16T06:48:18;3.40;99.90
15095;DHT22;7648;52.264;9.632;2023-02-16T06:52:22;3.50;99.90
15095;DHT22;7648;52.264;9.632;2023-02-16T06:56:24;3.60;99.90
15095;DHT22;7648;52.264;9.632;2023-02-16T07:00:26;3.70;99.90
15095;DHT22;7648;52.264;9.632;2023-02-16T07:04:29;3.80;99.90
15095;DHT22;7648;52.264;9.632;2023-02-16T07:08:32;3.90;99.90
15095;DHT22;7648;52.264;9.632;2023-02-16T07:12:34;3.90;99.90
15095;DHT22;7648;52.264;9.632;2023-02-16T07:16:36;3.90;99.90
15095;DHT22;7648;52.264;9.632;2023-02-16T07:20:38;4.00;99.90
15095;DHT22;7648;52.264;9.632;2023-02-16T07:24:41;4.10;99.90
15095;DHT22;7648;52.264;9.632;2023-02-16T07:28:43;4.10;99.90
15095;DHT22;7648;52.264;9.632;2023-02-16T07:32:45;4.10;99.90
15095;DHT22;7648;52.264;9.632;2023-02-16T07:36:47;4.30;99.90
15095;DHT22;7648;52.264;9.632;2023-02-16T07:40:50;4.40;99.90
15095;DHT22;7648;52.264;9.632;2023-02-16T07:44:52;4.50;99.90
15095;DHT22;7648;52.264;9.632;2023-02-16T07:48:54;4.60;99.90
15095;DHT22;7648;52.264;9.632;2023-02-16T07:52:55;4.70;99.90
15095;DHT22;7648;52.264;9.632;2023-02-16T07:56:59;5.00;99.90
15095;DHT22;7648;52.264;9.632;2023-02-16T08:01:10;5.10;99.90
15095;DHT22;7648;52.264;9.632;2023-02-16T08:05:12;5.10;99.90
15095;DHT22;7648;52.264;9.632;2023-02-16T08:09:14;5.20;99.90
15095;DHT22;7648;52.264;9.632;2023-02-16T08:13:17;5.30;99.90
15095;DHT22;7648;52.264;9.632;2023-02-16T08:17:19;5.30;99.90
15095;DHT22;7648;52.264;9.632;2023-02-16T08:21:23;5.40;99.90
15095;DHT22;7648;52.264;9.632;2023-02-16T08:25:25;5.40;99.90
15095;DHT22;7648;52.264;9.632;2023-02-16T08:29:29;5.40;99.90
15095;DHT22;7648;52.264;9.632;2023-02-16T08:33:32;5.40;99.90
15095;DHT22;7648;52.264;9.632;2023-02-16T08:37:36;5.40;99.90
15095;DHT22;7648;52.264;9.632;2023-02-16T08:41:38;5.40;99.90
15095;DHT22;7648;52.264;9.632;2023-02-16T08:45:44;5.50;99.90
15095;DHT22;7648;52.264;9.632;2023-02-16T08:49:46;5.70;99.90
15095;DHT22;7648;52.264;9.632;2023-02-16T08:53:49;6.00;99.90
15095;DHT22;7648;52.264;9.632;2023-02-16T08:57:51;6.20;99.90
15095;DHT22;7648;52.264;9.632;2023-02-16T09:01:55;6.50;99.90
15095;DHT22;7648;52.264;9.632;2023-02-16T09:06:00;6.60;99.90
15095;DHT22;7648;52.264;9.632;2023-02-16T09:10:03;6.80;99.90
15095;DHT22;7648;52.264;9.632;2023-02-16T09:14:05;6.80;99.90
15095;DHT22;7648;52.264;9.632;2023-02-16T09:18:10;6.70;99.90
15095;DHT22;7648;52.264;9.632;2023-02-16T09:22:13;6.50;99.90
15095;DHT22;7648;52.264;9.632;2023-02-16T09:26:16;6.50;99.90
15095;DHT22;7648;52.264;9.632;2023-02-16T09:30:18;6.40;99.90
15095;DHT22;7648;52.264;9.632;2023-02-16T09:34:22;6.40;99.90
15095;DHT22;7648;52.264;9.632;2023-02-16T09:38:24;6.30;99.90
15095;DHT22;7648;52.264;9.632;2023-02-16T09:42:35;6.30;99.90
15095;DHT22;7648;52.264;9.632;2023-02-16T09:46:40;6.40;99.90
15095;DHT22;7648;52.264;9.632;2023-02-16T09:50:45;6.40;99.90
15095;DHT22;7648;52.264;9.632;2023-02-16T09:54:50;6.30;99.90
15095;DHT22;7648;52.264;9.632;2023-02-16T09:58:57;6.30;99.90
15095;DHT22;7648;52.264;9.632;2023-02-16T10:03:19;6.30;99.90
15095;DHT22;7648;52.264;9.632;2023-02-16T10:07:32;6.20;99.90
15095;DHT22;7648;52.264;9.632;2023-02-16T10:11:41;6.10;99.90
15095;DHT22;7648;52.264;9.632;2023-02-16T10:15:47;6.00;99.90
15095;DHT22;7648;52.264;9.632;2023-02-16T10:19:52;5.90;99.90
15095;DHT22;7648;52.264;9.632;2023-02-16T10:24:00;5.80;99.90
15095;DHT22;7648;52.264;9.632;2023-02-16T10:28:10;5.80;99.90
15095;DHT22;7648;52.264;9.632;2023-02-16T10:32:24;5.80;99.90
15095;DHT22;7648;52.264;9.632;2023-02-16T10:36:37;6.00;99.90
15095;DHT22;7648;52.264;9.632;2023-02-16T10:40:52;6.20;99.90
15095;DHT22;7648;52.264;9.632;2023-02-16T10:44:59;6.40;99.90
15095;DHT22;7648;52.264;9.632;2023-02-16T10:49:03;6.40;99.90
15095;DHT22;7648;52.264;9.632;2023-02-16T10:53:09;6.50;99.90
15095;DHT22;7648;52.264;9.632;2023-02-16T10:57:22;6.60;99.90
15095;DHT22;7648;52.264;9.632;2023-02-16T11:01:32;6.60;99.90
15095;DHT22;7648;52.264;9.632;2023-02-16T11:05:37;6.60;99.90
15095;DHT22;7648;52.264;9.632;2023-02-16T11:09:40;6.70;99.90
15095;DHT22;7648;52.264;9.632;2023-02-16T11:13:46;6.80;99.90
15095;DHT22;7648;52.264;9.632;2023-02-16T11:17:51;6.80;99.90
15095;DHT22;7648;52.264;9.632;2023-02-16T11:21:55;6.90;99.90
15095;DHT22;7648;52.264;9.632;2023-02-16T11:26:01;6.90;99.90
15095;DHT22;7648;52.264;9.632;2023-02-16T11:30:20;7.00;99.90
15095;DHT22;7648;52.264;9.632;2023-02-16T11:34:31;7.00;99.90
15095;DHT22;7648;52.264;9.632;2023-02-16T11:38:35;7.00;99.90
15095;DHT22;7648;52.264;9.632;2023-02-16T11:42:39;7.10;99.90
15095;DHT22;7648;52.264;9.632;2023-02-16T11:46:47;7.20;99.90
15095;DHT22;7648;52.264;9.632;2023-02-16T11:50:55;7.30;99.90
15095;DHT22;7648;52.264;9.632;2023-02-16T11:54:59;7.30;99.90
15095;DHT22;7648;52.264;9.632;2023-02-16T11:59:04;7.40;99.90
15095;DHT22;7648;52.264;9.632;2023-02-16T12:03:18;7.50;99.90
15095;DHT22;7648;52.264;9.632;2023-02-16T12:07:32;7.50;99.90
15095;DHT22;7648;52.264;9.632;2023-02-16T12:11:42;7.60;99.90
15095;DHT22;7648;52.264;9.632;2023-02-16T12:15:50;7.70;99.90
15095;DHT22;7648;52.264;9.632;2023-02-16T12:20:04;7.70;99.90
15095;DHT22;7648;52.264;9.632;2023-02-16T12:24:13;7.70;99.90
15095;DHT22;7648;52.264;9.632;2023-02-16T12:28:22;7.70;99.90
15095;DHT22;7648;52.264;9.632;2023-02-16T12:32:36;7.80;99.90
15095;DHT22;7648;52.264;9.632;2023-02-16T12:36:49;7.90;99.90
15095;DHT22;7648;52.264;9.632;2023-02-16T12:40:58;8.00;99.90
15095;DHT22;7648;52.264;9.632;2023-02-16T12:45:07;8.00;99.90
15095;DHT22;7648;52.264;9.632;2023-02-16T12:49:14;8.00;99.90
15095;DHT22;7648;52.264;9.632;2023-02-16T12:53:23;8.00;99.90
15095;DHT22;7648;52.264;9.632;2023-02-16T12:57:28;8.00;99.90
15095;DHT22;7648;52.264;9.632;2023-02-16T13:01:33;8.10;99.90
15095;DHT22;7648;52.264;9.632;2023-02-16T13:05:36;8.00;99.90
15095;DHT22;7648;52.264;9.632;2023-02-16T13:09:45;8.00;99.90
15095;DHT22;7648;52.264;9.632;2023-02-16T13:13:51;8.00;99.90
15095;DHT22;7648;52.264;9.632;2023-02-16T13:17:59;7.90;99.90
15095;DHT22;7648;52.264;9.632;2023-02-16T13:22:22;7.90;99.90
15095;DHT22;7648;52.264;9.632;2023-02-16T13:26:42;7.90;99.90
15095;DHT22;7648;52.264;9.632;2023-02-16T13:30:58;8.00;99.90
15095;DHT22;7648;52.264;9.632;2023-02-16T13:35:20;8.20;99.90
15095;DHT22;7648;52.264;9.632;2023-02-16T13:39:52;8.30;99.90
15095;DHT22;7648;52.264;9.632;2023-02-16T13:44:01;8.40;99.90
15095;DHT22;7648;52.264;9.632;2023-02-16T13:48:12;8.50;99.90
15095;DHT22;7648;52.264;9.632;2023-02-16T13:52:28;8.50;99.90
15095;DHT22;7648;52.264;9.632;2023-02-16T13:56:33;8.50;99.90
15095;DHT22;7648;52.264;9.632;2023-02-16T14:00:39;8.50;99.90
15095;DHT22;7648;52.264;9.632;2023-02-16T14:05:03;8.50;99.90
15095;DHT22;7648;52.264;9.632;2023-02-16T14:09:44;8.40;99.90
15095;DHT22;7648;52.264;9.632;2023-02-16T14:13:49;8.40;99.90
15095;DHT22;7648;52.264;9.632;2023-02-16T14:17:52;8.30;99.90
15095;DHT22;7648;52.264;9.632;2023-02-16T14:21:54;8.30;99.90
15095;DHT22;7648;52.264;9.632;2023-02-16T14:26:00;8.30;99.90
15095;DHT22;7648;52.264;9.632;2023-02-16T14:30:04;8.30;99.90
15095;DHT22;7648;52.264;9.632;2023-02-16T14:34:18;8.30;99.90
15095;DHT22;7648;52.264;9.632;2023-02-16T14:38:26;8.40;99.90
15095;DHT22;7648;52.264;9.632;2023-02-16T14:42:30;8.40;99.90
15095;DHT22;7648;52.264;9.632;2023-02-16T14:46:41;8.40;99.90
15095;DHT22;7648;52.264;9.632;2023-02-16T14:51:00;8.40;99.90
15095;DHT22;7648;52.264;9.632;2023-02-16T14:55:40;8.30;99.90
15095;DHT22;7648;52.264;9.632;2023-02-16T14:59:51;8.30;99.90
15095;DHT22;7648;52.264;9.632;2023-02-16T15:03:55;8.40;99.90
15095;DHT22;7648;52.264;9.632;2023-02-16T15:08:04;8.50;99.90
15095;DHT22;7648;52.264;9.632;2023-02-16T15:12:11;8.50;99.90
15095;DHT22;7648;52.264;9.632;2023-02-16T15:16:23;8.60;99.90
15095;DHT22;7648;52.264;9.632;2023-02-16T15:20:27;8.50;99.90
15095;DHT22;7648;52.264;9.632;2023-02-16T15:24:32;8.50;99.90
15095;DHT22;7648;52.264;9.632;2023-02-16T15:28:36;8.50;99.90
15095;DHT22;7648;52.264;9.632;2023-02-16T15:32:38;8.60;99.90
15095;DHT22;7648;52.264;9.632;2023-02-16T15:36:43;8.60;99.90
15095;DHT22;7648;52.264;9.632;2023-02-16T15:40:50;8.60;99.90
15095;DHT22;7648;52.264;9.632;2023-02-16T15:44:53;8.70;99.90
15095;DHT22;7648;52.264;9.632;2023-02-16T15:48:57;8.70;99.90
15095;DHT22;7648;52.264;9.632;2023-02-16T15:52:59;8.70;99.90
15095;DHT22;7648;52.264;9.632;2023-02-16T15:57:04;8.70;99.90
15095;DHT22;7648;52.264;9.632;2023-02-16T16:01:19;8.70;99.90
15095;DHT22;7648;52.264;9.632;2023-02-16T16:05:24;8.70;99.90
15095;DHT22;7648;52.264;9.632;2023-02-16T16:09:28;8.70;99.90
15095;DHT22;7648;52.264;9.632;2023-02-16T16:13:34;8.60;99.90
15095;DHT22;7648;52.264;9.632;2023-02-16T16:17:37;8.60;99.90
15095;DHT22;7648;52.264;9.632;2023-02-16T16:21:46;8.50;99.90
15095;DHT22;7648;52.264;9.632;2023-02-16T16:25:49;8.40;99.90
15095;DHT22;7648;52.264;9.632;2023-02-16T16:30:08;8.40;99.90
15095;DHT22;7648;52.264;9.632;2023-02-16T16:34:32;8.30;99.90
15095;DHT22;7648;52.264;9.632;2023-02-16T16:38:37;8.30;99.90
15095;DHT22;7648;52.264;9.632;2023-02-16T16:43:05;8.30;99.90
15095;DHT22;7648;52.264;9.632;2023-02-16T16:47:19;8.30;99.90
15095;DHT22;7648;52.264;9.632;2023-02-16T16:51:35;8.30;99.90
15095;DHT22;7648;52.264;9.632;2023-02-16T16:55:38;8.20;99.90
15095;DHT22;7648;52.264;9.632;2023-02-16T16:59:40;8.20;99.90
15095;DHT22;7648;52.264;9.632;2023-02-16T17:03:43;8.20;99.90
15095;DHT22;7648;52.264;9.632;2023-02-16T17:07:45;8.20;99.90
15095;DHT22;7648;52.264;9.632;2023-02-16T17:11:48;8.20;99.90
15095;DHT22;7648;52.264;9.632;2023-02-16T17:15:52;8.20;99.90
15095;DHT22;7648;52.264;9.632;2023-02-16T17:19:56;8.20;99.90
15095;DHT22;7648;52.264;9.632;2023-02-16T17:23:58;8.20;99.90
15095;DHT22;7648;52.264;9.632;2023-02-16T17:28:00;8.20;99.90
15095;DHT22;7648;52.264;9.632;2023-02-16T17:32:03;8.10;99.90
15095;DHT22;7648;52.264;9.632;2023-02-16T17:36:07;8.10;99.90
15095;DHT22;7648;52.264;9.632;2023-02-16T17:40:11;8.00;99.90
15095;DHT22;7648;52.264;9.632;2023-02-16T17:44:16;8.00;99.90
15095;DHT22;7648;52.264;9.632;2023-02-16T17:48:21;8.00;99.90
15095;DHT22;7648;52.264;9.632;2023-02-16T17:52:25;8.10;99.90
15095;DHT22;7648;52.264;9.632;2023-02-16T17:56:27;8.00;99.90
15095;DHT22;7648;52.264;9.632;2023-02-16T18:00:29;8.00;99.90
15095;DHT22;7648;52.264;9.632;2023-02-16T18:04:31;8.00;99.90
15095;DHT22;7648;52.264;9.632;2023-02-16T18:08:36;8.00;99.90
15095;DHT22;7648;52.264;9.632;2023-02-16T18:12:38;7.90;99.90
15095;DHT22;7648;52.264;9.632;2023-02-16T18:16:40;8.00;99.90
15095;DHT22;7648;52.264;9.632;2023-02-16T18:20:42;7.90;99.90
15095;DHT22;7648;52.264;9.632;2023-02-16T18:24:46;7.90;99.90
15095;DHT22;7648;52.264;9.632;2023-02-16T18:28:47;7.90;99.90
15095;DHT22;7648;52.264;9.632;2023-02-16T18:32:49;7.90;99.90
15095;DHT22;7648;52.264;9.632;2023-02-16T18:36:51;7.90;99.90
15095;DHT22;7648;52.264;9.632;2023-02-16T18:40:54;8.00;99.90
15095;DHT22;7648;52.264;9.632;2023-02-16T18:44:56;8.00;99.90
15095;DHT22;7648;52.264;9.632;2023-02-16T18:48:58;7.90;99.90
15095;DHT22;7648;52.264;9.632;2023-02-16T18:53:00;7.90;99.90
15095;DHT22;7648;52.264;9.632;2023-02-16T18:57:03;7.90;99.90
15095;DHT22;7648;52.264;9.632;2023-02-16T19:01:12;7.90;99.90
15095;DHT22;7648;52.264;9.632;2023-02-16T19:05:15;7.90;99.90
15095;DHT22;7648;52.264;9.632;2023-02-16T19:09:17;8.00;99.90
15095;DHT22;7648;52.264;9.632;2023-02-16T19:13:20;7.90;99.90
15095;DHT22;7648;52.264;9.632;2023-02-16T19:17:22;7.90;99.90
15095;DHT22;7648;52.264;9.632;2023-02-16T19:21:24;7.90;99.90
15095;DHT22;7648;52.264;9.632;2023-02-16T19:25:26;7.90;99.90
15095;DHT22;7648;52.264;9.632;2023-02-16T19:29:30;7.90;99.90
15095;DHT22;7648;52.264;9.632;2023-02-16T19:33:32;7.90;99.90
15095;DHT22;7648;52.264;9.632;2023-02-16T19:37:34;7.90;99.90
15095;DHT22;7648;52.264;9.632;2023-02-16T19:41:37;7.90;99.90
15095;DHT22;7648;52.264;9.632;2023-02-16T19:45:40;7.90;99.90
15095;DHT22;7648;52.264;9.632;2023-02-16T19:49:42;7.90;99.90
15095;DHT22;7648;52.264;9.632;2023-02-16T19:53:44;7.90;99.90
15095;DHT22;7648;52.264;9.632;2023-02-16T19:57:46;7.80;99.90
15095;DHT22;7648;52.264;9.632;2023-02-16T20:01:49;7.80;99.90
15095;DHT22;7648;52.264;9.632;2023-02-16T20:05:51;7.80;99.90
15095;DHT22;7648;52.264;9.632;2023-02-16T20:09:53;7.80;99.90
15095;DHT22;7648;52.264;9.632;2023-02-16T20:13:56;7.90;99.90
15095;DHT22;7648;52.264;9.632;2023-02-16T20:17:59;7.90;99.90
15095;DHT22;7648;52.264;9.632;2023-02-16T20:22:01;7.90;99.90
15095;DHT22;7648;52.264;9.632;2023-02-16T20:26:05;8.00;99.90
15095;DHT22;7648;52.264;9.632;2023-02-16T20:30:13;8.00;99.90
15095;DHT22;7648;52.264;9.632;2023-02-16T20:34:16;8.00;99.90
15095;DHT22;7648;52.264;9.632;2023-02-16T20:38:19;8.00;99.90
15095;DHT22;7648;52.264;9.632;2023-02-16T20:42:20;7.90;99.90
15095;DHT22;7648;52.264;9.632;2023-02-16T20:46:23;7.90;99.90
15095;DHT22;7648;52.264;9.632;2023-02-16T20:50:26;7.90;99.90
15095;DHT22;7648;52.264;9.632;2023-02-16T20:54:28;7.80;99.90
15095;DHT22;7648;52.264;9.632;2023-02-16T20:58:31;7.80;99.90
15095;DHT22;7648;52.264;9.632;2023-02-16T21:02:33;7.70;99.90
15095;DHT22;7648;52.264;9.632;2023-02-16T21:06:36;7.70;99.90
15095;DHT22;7648;52.264;9.632;2023-02-16T21:10:38;7.60;99.90
15095;DHT22;7648;52.264;9.632;2023-02-16T21:14:40;7.60;99.90
15095;DHT22;7648;52.264;9.632;2023-02-16T21:18:42;7.50;99.90
15095;DHT22;7648;52.264;9.632;2023-02-16T21:22:46;7.50;99.90
15095;DHT22;7648;52.264;9.632;2023-02-16T21:26:47;7.50;99.90
15095;DHT22;7648;52.264;9.632;2023-02-16T21:30:49;7.40;99.90
15095;DHT22;7648;52.264;9.632;2023-02-16T21:34:51;7.40;99.90
15095;DHT22;7648;52.264;9.632;2023-02-16T21:38:54;7.30;99.90
15095;DHT22;7648;52.264;9.632;2023-02-16T21:42:57;7.30;99.90
15095;DHT22;7648;52.264;9.632;2023-02-16T21:46:58;7.30;99.90
15095;DHT22;7648;52.264;9.632;2023-02-16T21:51:20;7.30;99.90
15095;DHT22;7648;52.264;9.632;2023-02-16T21:55:25;7.30;99.90
15095;DHT22;7648;52.264;9.632;2023-02-16T21:59:44;7.30;99.90
15095;DHT22;7648;52.264;9.632;2023-02-16T22:03:46;7.20;99.90
15095;DHT22;7648;52.264;9.632;2023-02-16T22:07:48;7.20;99.90
15095;DHT22;7648;52.264;9.632;2023-02-16T22:11:51;7.20;99.90
15095;DHT22;7648;52.264;9.632;2023-02-16T22:15:53;7.20;99.90
15095;DHT22;7648;52.264;9.632;2023-02-16T22:19:54;7.10;99.90
15095;DHT22;7648;52.264;9.632;2023-02-16T22:23:56;7.10;99.90
15095;DHT22;7648;52.264;9.632;2023-02-16T22:28:01;7.10;99.90
15095;DHT22;7648;52.264;9.632;2023-02-16T22:32:03;7.10;99.90
15095;DHT22;7648;52.264;9.632;2023-02-16T22:36:06;7.10;99.90
15095;DHT22;7648;52.264;9.632;2023-02-16T22:40:09;7.10;99.90
15095;DHT22;7648;52.264;9.632;2023-02-16T22:44:12;7.10;99.90
15095;DHT22;7648;52.264;9.632;2023-02-16T22:48:15;7.20;99.90
15095;DHT22;7648;52.264;9.632;2023-02-16T22:52:17;7.20;99.90
15095;DHT22;7648;52.264;9.632;2023-02-16T22:56:19;7.20;99.90
15095;DHT22;7648;52.264;9.632;2023-02-16T23:00:22;7.30;99.90
15095;DHT22;7648;52.264;9.632;2023-02-16T23:04:24;7.30;99.90
15095;DHT22;7648;52.264;9.632;2023-02-16T23:08:26;7.40;99.90
15095;DHT22;7648;52.264;9.632;2023-02-16T23:12:28;7.40;99.90
15095;DHT22;7648;52.264;9.632;2023-02-16T23:16:31;7.40;99.90
15095;DHT22;7648;52.264;9.632;2023-02-16T23:20:33;7.50;99.90
15095;DHT22;7648;52.264;9.632;2023-02-16T23:24:35;7.50;99.90
15095;DHT22;7648;52.264;9.632;2023-02-16T23:28:39;7.50;99.90
15095;DHT22;7648;52.264;9.632;2023-02-16T23:32:42;7.50;99.90
15095;DHT22;7648;52.264;9.632;2023-02-16T23:36:44;7.60;99.90
15095;DHT22;7648;52.264;9.632;2023-02-16T23:40:54;7.60;99.90
15095;DHT22;7648;52.264;9.632;2023-02-16T23:44:56;7.70;99.90
15095;DHT22;7648;52.264;9.632;2023-02-16T23:49:00;7.70;99.90
15095;DHT22;7648;52.264;9.632;2023-02-16T23:53:01;7.80;99.90
15095;DHT22;7648;52.264;9.632;2023-02-16T23:57:04;7.80;99.90
